sensor_id;sensor_type;location;lat;lon;timestamp;temperature;humidity
4699;DHT22;33708;49.466;11.176;2023-09-07T00:02:08;14.60;1.00
4699;DHT22;33708;49.466;11.176;2023-09-07T00:04:34;14.40;1.00
4699;DHT22;33708;49.466;11.176;2023-09-07T00:06:59;14.30;1.00
4699;DHT22;33708;49.466;11.176;2023-09-07T00:09:25;14.20;1.00
4699;DHT22;33708;49.466;11.176;2023-09-07T00:14:19;13.90;99.90
4699;DHT22;33708;49.466;11.176;2023-09-07T00:16:45;14.00;1.00
4699;DHT22;33708;49.466;11.176;2023-09-07T00:19:11;14.00;99.90
4699;DHT22;33708;49.466;11.176;2023-09-07T00:21:36;13.90;99.90
4699;DHT22;33708;49.466;11.176;2023-09-07T00:24:02;14.00;99.90
4699;DHT22;33708;49.466;11.176;2023-09-07T00:26:30;13.80;99.90
4699;DHT22;33708;49.466;11.176;2023-09-07T00:28:56;13.30;1.00
4699;DHT22;33708;49.466;11.176;2023-09-07T00:31:22;13.70;1.00
4699;DHT22;33708;49.466;11.176;2023-09-07T00:33:47;13.70;1.00
4699;DHT22;33708;49.466;11.176;2023-09-07T00:36:17;13.60;1.00
4699;DHT22;33708;49.466;11.176;2023-09-07T00:38:43;13.60;1.00
4699;DHT22;33708;49.466;11.176;2023-09-07T00:41:11;13.60;1.00
4699;DHT22;33708;49.466;11.176;2023-09-07T00:46:06;13.60;99.90
4699;DHT22;33708;49.466;11.176;2023-09-07T00:48:32;13.50;99.90
4699;DHT22;33708;49.466;11.176;2023-09-07T00:50:59;14.40;99.90
4699;DHT22;33708;49.466;11.176;2023-09-07T00:53:26;13.50;25.20
4699;DHT22;33708;49.466;11.176;2023-09-07T00:55:56;13.50;16.40
4699;DHT22;33708;49.466;11.176;2023-09-07T00:58:26;13.40;1.00
4699;DHT22;33708;49.466;11.176;2023-09-07T01:00:53;13.50;12.00
4699;DHT22;33708;49.466;11.176;2023-09-07T01:03:20;13.50;31.40
4699;DHT22;33708;49.466;11.176;2023-09-07T01:05:51;13.40;25.00
4699;DHT22;33708;49.466;11.176;2023-09-07T01:08:24;13.50;34.80
4699;DHT22;33708;49.466;11.176;2023-09-07T01:10:54;12.70;31.10
4699;DHT22;33708;49.466;11.176;2023-09-07T01:13:20;13.50;30.00
4699;DHT22;33708;49.466;11.176;2023-09-07T01:15:56;13.50;58.90
4699;DHT22;33708;49.466;11.176;2023-09-07T01:18:23;13.50;83.60
4699;DHT22;33708;49.466;11.176;2023-09-07T01:20:49;13.60;50.10
4699;DHT22;33708;49.466;11.176;2023-09-07T01:23:15;13.80;39.40
4699;DHT22;33708;49.466;11.176;2023-09-07T01:25:41;13.90;38.50
4699;DHT22;33708;49.466;11.176;2023-09-07T01:28:08;14.10;34.90
4699;DHT22;33708;49.466;11.176;2023-09-07T01:30:35;14.10;10.70
4699;DHT22;33708;49.466;11.176;2023-09-07T01:33:01;14.10;4.60
4699;DHT22;33708;49.466;11.176;2023-09-07T01:35:27;14.00;1.00
4699;DHT22;33708;49.466;11.176;2023-09-07T01:37:53;13.70;2.40
4699;DHT22;33708;49.466;11.176;2023-09-07T01:40:18;13.50;8.40
4699;DHT22;33708;49.466;11.176;2023-09-07T01:42:44;13.30;20.30
4699;DHT22;33708;49.466;11.176;2023-09-07T01:45:10;13.50;73.40
4699;DHT22;33708;49.466;11.176;2023-09-07T01:47:35;13.60;61.00
4699;DHT22;33708;49.466;11.176;2023-09-07T01:50:01;13.70;28.70
4699;DHT22;33708;49.466;11.176;2023-09-07T01:52:26;13.80;9.60
4699;DHT22;33708;49.466;11.176;2023-09-07T01:54:52;13.50;4.70
4699;DHT22;33708;49.466;11.176;2023-09-07T01:57:18;13.30;8.70
4699;DHT22;33708;49.466;11.176;2023-09-07T01:59:43;13.20;21.60
4699;DHT22;33708;49.466;11.176;2023-09-07T02:02:09;13.20;25.80
4699;DHT22;33708;49.466;11.176;2023-09-07T02:04:34;13.10;53.90
4699;DHT22;33708;49.466;11.176;2023-09-07T02:07:00;13.00;60.00
4699;DHT22;33708;49.466;11.176;2023-09-07T02:09:26;13.00;48.10
4699;DHT22;33708;49.466;11.176;2023-09-07T02:12:01;13.00;46.80
4699;DHT22;33708;49.466;11.176;2023-09-07T02:14:41;12.90;59.10
4699;DHT22;33708;49.466;11.176;2023-09-07T02:17:26;12.90;55.70
4699;DHT22;33708;49.466;11.176;2023-09-07T02:20:01;12.90;52.20
4699;DHT22;33708;49.466;11.176;2023-09-07T02:22:37;13.00;94.00
4699;DHT22;33708;49.466;11.176;2023-09-07T02:25:09;13.10;90.10
4699;DHT22;33708;49.466;11.176;2023-09-07T02:27:48;12.70;96.10
4699;DHT22;33708;49.466;11.176;2023-09-07T02:30:14;12.60;99.90
4699;DHT22;33708;49.466;11.176;2023-09-07T02:32:43;12.80;99.90
4699;DHT22;33708;49.466;11.176;2023-09-07T02:35:09;12.80;99.90
4699;DHT22;33708;49.466;11.176;2023-09-07T02:37:37;12.90;99.90
4699;DHT22;33708;49.466;11.176;2023-09-07T02:40:03;12.90;99.90
4699;DHT22;33708;49.466;11.176;2023-09-07T02:42:33;13.10;99.90
4699;DHT22;33708;49.466;11.176;2023-09-07T02:44:59;13.10;99.90
4699;DHT22;33708;49.466;11.176;2023-09-07T02:47:25;13.00;99.90
4699;DHT22;33708;49.466;11.176;2023-09-07T02:49:50;13.00;99.90
4699;DHT22;33708;49.466;11.176;2023-09-07T02:52:16;12.80;96.30
4699;DHT22;33708;49.466;11.176;2023-09-07T02:54:42;12.70;99.90
4699;DHT22;33708;49.466;11.176;2023-09-07T02:57:07;12.70;97.10
4699;DHT22;33708;49.466;11.176;2023-09-07T02:59:33;12.60;83.40
4699;DHT22;33708;49.466;11.176;2023-09-07T03:01:58;12.60;99.90
4699;DHT22;33708;49.466;11.176;2023-09-07T03:04:24;12.50;99.90
4699;DHT22;33708;49.466;11.176;2023-09-07T03:06:50;12.50;99.90
4699;DHT22;33708;49.466;11.176;2023-09-07T03:09:15;12.40;96.50
4699;DHT22;33708;49.466;11.176;2023-09-07T03:11:41;12.30;99.90
4699;DHT22;33708;49.466;11.176;2023-09-07T03:14:06;12.20;99.90
4699;DHT22;33708;49.466;11.176;2023-09-07T03:16:32;12.20;99.90
4699;DHT22;33708;49.466;11.176;2023-09-07T03:18:58;12.20;99.90
4699;DHT22;33708;49.466;11.176;2023-09-07T03:21:23;12.10;99.90
4699;DHT22;33708;49.466;11.176;2023-09-07T03:23:55;12.30;99.90
4699;DHT22;33708;49.466;11.176;2023-09-07T03:26:21;12.30;99.90
4699;DHT22;33708;49.466;11.176;2023-09-07T03:28:46;12.20;99.90
4699;DHT22;33708;49.466;11.176;2023-09-07T03:31:12;12.10;99.90
4699;DHT22;33708;49.466;11.176;2023-09-07T03:33:37;12.10;99.90
4699;DHT22;33708;49.466;11.176;2023-09-07T03:36:03;12.10;99.90
4699;DHT22;33708;49.466;11.176;2023-09-07T03:38:29;12.00;99.90
4699;DHT22;33708;49.466;11.176;2023-09-07T03:40:55;12.00;99.90
4699;DHT22;33708;49.466;11.176;2023-09-07T03:43:21;11.90;99.90
4699;DHT22;33708;49.466;11.176;2023-09-07T03:45:46;11.90;99.90
4699;DHT22;33708;49.466;11.176;2023-09-07T03:48:12;11.90;99.90
4699;DHT22;33708;49.466;11.176;2023-09-07T03:50:38;11.90;99.90
4699;DHT22;33708;49.466;11.176;2023-09-07T03:53:03;11.90;99.90
4699;DHT22;33708;49.466;11.176;2023-09-07T03:55:29;11.80;99.90
4699;DHT22;33708;49.466;11.176;2023-09-07T03:57:55;11.80;99.90
4699;DHT22;33708;49.466;11.176;2023-09-07T04:00:20;11.70;99.90
4699;DHT22;33708;49.466;11.176;2023-09-07T04:02:46;11.70;99.90
4699;DHT22;33708;49.466;11.176;2023-09-07T04:05:12;11.70;99.90
4699;DHT22;33708;49.466;11.176;2023-09-07T04:07:38;11.70;99.90
4699;DHT22;33708;49.466;11.176;2023-09-07T04:10:05;11.70;99.90
4699;DHT22;33708;49.466;11.176;2023-09-07T04:12:30;11.70;99.90
4699;DHT22;33708;49.466;11.176;2023-09-07T04:14:56;11.70;99.90
4699;DHT22;33708;49.466;11.176;2023-09-07T04:17:22;11.70;99.90
4699;DHT22;33708;49.466;11.176;2023-09-07T04:19:48;11.80;99.90
4699;DHT22;33708;49.466;11.176;2023-09-07T04:22:13;11.90;99.90
4699;DHT22;33708;49.466;11.176;2023-09-07T04:24:39;11.90;99.90
4699;DHT22;33708;49.466;11.176;2023-09-07T04:27:05;12.00;99.90
4699;DHT22;33708;49.466;11.176;2023-09-07T04:29:30;12.00;99.90
4699;DHT22;33708;49.466;11.176;2023-09-07T04:31:56;12.00;99.90
4699;DHT22;33708;49.466;11.176;2023-09-07T04:34:22;11.90;99.90
4699;DHT22;33708;49.466;11.176;2023-09-07T04:36:48;11.90;99.90
4699;DHT22;33708;49.466;11.176;2023-09-07T04:39:14;11.90;1.00
4699;DHT22;33708;49.466;11.176;2023-09-07T04:41:40;11.90;99.90
4699;DHT22;33708;49.466;11.176;2023-09-07T04:44:06;11.80;99.90
4699;DHT22;33708;49.466;11.176;2023-09-07T04:46:31;11.70;1.00
4699;DHT22;33708;49.466;11.176;2023-09-07T04:48:57;11.70;99.90
4699;DHT22;33708;49.466;11.176;2023-09-07T04:51:23;11.70;1.00
4699;DHT22;33708;49.466;11.176;2023-09-07T04:53:51;11.80;1.00
4699;DHT22;33708;49.466;11.176;2023-09-07T04:56:17;11.80;99.90
4699;DHT22;33708;49.466;11.176;2023-09-07T04:58:42;11.90;1.00
4699;DHT22;33708;49.466;11.176;2023-09-07T05:01:10;11.90;1.00
4699;DHT22;33708;49.466;11.176;2023-09-07T05:03:37;12.10;1.00
4699;DHT22;33708;49.466;11.176;2023-09-07T05:06:03;12.50;1.00
4699;DHT22;33708;49.466;11.176;2023-09-07T05:08:29;12.60;99.90
4699;DHT22;33708;49.466;11.176;2023-09-07T05:10:59;15.40;99.90
4699;DHT22;33708;49.466;11.176;2023-09-07T05:13:25;16.80;18.30
4699;DHT22;33708;49.466;11.176;2023-09-07T05:15:53;18.40;1.00
4699;DHT22;33708;49.466;11.176;2023-09-07T05:18:19;19.40;1.00
4699;DHT22;33708;49.466;11.176;2023-09-07T05:20:45;20.50;1.00
4699;DHT22;33708;49.466;11.176;2023-09-07T05:23:12;20.70;1.00
4699;DHT22;33708;49.466;11.176;2023-09-07T05:25:49;18.70;1.00
4699;DHT22;33708;49.466;11.176;2023-09-07T05:28:17;16.80;1.00
4699;DHT22;33708;49.466;11.176;2023-09-07T05:30:43;15.80;1.00
4699;DHT22;33708;49.466;11.176;2023-09-07T05:33:10;15.20;1.00
4699;DHT22;33708;49.466;11.176;2023-09-07T05:35:36;14.90;1.00
4699;DHT22;33708;49.466;11.176;2023-09-07T05:38:02;14.60;1.00
4699;DHT22;33708;49.466;11.176;2023-09-07T05:40:28;14.50;1.00
4699;DHT22;33708;49.466;11.176;2023-09-07T05:42:54;14.70;1.00
4699;DHT22;33708;49.466;11.176;2023-09-07T05:45:20;14.40;1.00
4699;DHT22;33708;49.466;11.176;2023-09-07T05:47:46;14.50;1.00
4699;DHT22;33708;49.466;11.176;2023-09-07T05:50:11;14.70;1.00
4699;DHT22;33708;49.466;11.176;2023-09-07T05:52:37;15.20;1.00
4699;DHT22;33708;49.466;11.176;2023-09-07T05:55:03;18.60;1.00
4699;DHT22;33708;49.466;11.176;2023-09-07T05:57:29;18.20;1.00
4699;DHT22;33708;49.466;11.176;2023-09-07T05:59:54;17.10;1.00
4699;DHT22;33708;49.466;11.176;2023-09-07T06:02:20;17.20;1.00
4699;DHT22;33708;49.466;11.176;2023-09-07T06:04:46;16.40;1.00
4699;DHT22;33708;49.466;11.176;2023-09-07T06:07:11;16.20;1.00
4699;DHT22;33708;49.466;11.176;2023-09-07T06:09:37;15.70;1.00
4699;DHT22;33708;49.466;11.176;2023-09-07T06:12:03;15.60;1.00
4699;DHT22;33708;49.466;11.176;2023-09-07T06:14:29;15.60;1.00
4699;DHT22;33708;49.466;11.176;2023-09-07T06:16:54;15.50;1.00
4699;DHT22;33708;49.466;11.176;2023-09-07T06:19:20;15.70;1.00
4699;DHT22;33708;49.466;11.176;2023-09-07T06:21:45;15.80;1.00
4699;DHT22;33708;49.466;11.176;2023-09-07T06:24:11;15.70;1.00
4699;DHT22;33708;49.466;11.176;2023-09-07T06:26:37;15.80;1.00
4699;DHT22;33708;49.466;11.176;2023-09-07T06:29:02;16.00;1.00
4699;DHT22;33708;49.466;11.176;2023-09-07T06:31:28;16.10;1.00
4699;DHT22;33708;49.466;11.176;2023-09-07T06:33:54;16.20;1.00
4699;DHT22;33708;49.466;11.176;2023-09-07T06:36:20;16.40;1.00
4699;DHT22;33708;49.466;11.176;2023-09-07T06:38:45;16.60;1.00
4699;DHT22;33708;49.466;11.176;2023-09-07T06:41:11;17.90;1.00
4699;DHT22;33708;49.466;11.176;2023-09-07T06:43:37;18.10;1.00
4699;DHT22;33708;49.466;11.176;2023-09-07T06:46:06;22.30;1.00
4699;DHT22;33708;49.466;11.176;2023-09-07T06:51:05;26.90;1.00
4699;DHT22;33708;49.466;11.176;2023-09-07T06:53:31;27.60;1.00
4699;DHT22;33708;49.466;11.176;2023-09-07T06:56:02;29.60;1.00
4699;DHT22;33708;49.466;11.176;2023-09-07T07:01:01;31.50;1.00
4699;DHT22;33708;49.466;11.176;2023-09-07T07:03:28;31.40;1.00
4699;DHT22;33708;49.466;11.176;2023-09-07T07:05:54;32.30;1.00
4699;DHT22;33708;49.466;11.176;2023-09-07T07:08:20;32.30;1.00
4699;DHT22;33708;49.466;11.176;2023-09-07T07:10:45;32.10;1.00
4699;DHT22;33708;49.466;11.176;2023-09-07T07:15:37;33.70;1.00
4699;DHT22;33708;49.466;11.176;2023-09-07T07:18:03;31.00;1.00
4699;DHT22;33708;49.466;11.176;2023-09-07T07:20:35;33.70;1.00
4699;DHT22;33708;49.466;11.176;2023-09-07T07:23:01;32.70;1.00
4699;DHT22;33708;49.466;11.176;2023-09-07T07:25:26;33.10;1.00
4699;DHT22;33708;49.466;11.176;2023-09-07T07:27:53;33.90;1.00
4699;DHT22;33708;49.466;11.176;2023-09-07T07:30:18;32.20;1.00
4699;DHT22;33708;49.466;11.176;2023-09-07T07:32:44;32.20;1.00
4699;DHT22;33708;49.466;11.176;2023-09-07T07:35:10;32.00;1.00
4699;DHT22;33708;49.466;11.176;2023-09-07T07:37:35;32.10;1.00
4699;DHT22;33708;49.466;11.176;2023-09-07T07:40:01;33.30;1.00
4699;DHT22;33708;49.466;11.176;2023-09-07T07:42:26;31.60;1.00
4699;DHT22;33708;49.466;11.176;2023-09-07T07:44:52;32.20;1.00
4699;DHT22;33708;49.466;11.176;2023-09-07T07:47:18;32.90;1.00
4699;DHT22;33708;49.466;11.176;2023-09-07T07:49:43;30.90;1.00
4699;DHT22;33708;49.466;11.176;2023-09-07T07:52:09;33.50;1.00
4699;DHT22;33708;49.466;11.176;2023-09-07T07:54:35;33.20;1.00
4699;DHT22;33708;49.466;11.176;2023-09-07T07:57:00;32.30;1.00
4699;DHT22;33708;49.466;11.176;2023-09-07T07:59:26;32.30;1.00
4699;DHT22;33708;49.466;11.176;2023-09-07T08:01:51;32.70;1.00
4699;DHT22;33708;49.466;11.176;2023-09-07T08:04:17;32.60;1.00
4699;DHT22;33708;49.466;11.176;2023-09-07T08:06:43;34.90;1.00
4699;DHT22;33708;49.466;11.176;2023-09-07T08:09:08;35.90;1.00
4699;DHT22;33708;49.466;11.176;2023-09-07T08:11:35;35.30;1.00
4699;DHT22;33708;49.466;11.176;2023-09-07T08:16:27;34.70;1.00
4699;DHT22;33708;49.466;11.176;2023-09-07T08:18:53;34.50;1.00
4699;DHT22;33708;49.466;11.176;2023-09-07T08:21:18;36.30;1.00
4699;DHT22;33708;49.466;11.176;2023-09-07T08:23:44;36.20;1.00
4699;DHT22;33708;49.466;11.176;2023-09-07T08:26:09;35.60;1.00
4699;DHT22;33708;49.466;11.176;2023-09-07T08:28:35;36.40;1.00
4699;DHT22;33708;49.466;11.176;2023-09-07T08:31:01;34.90;1.00
4699;DHT22;33708;49.466;11.176;2023-09-07T08:33:26;33.70;1.00
4699;DHT22;33708;49.466;11.176;2023-09-07T08:35:56;33.30;1.00
4699;DHT22;33708;49.466;11.176;2023-09-07T08:38:22;32.90;1.00
4699;DHT22;33708;49.466;11.176;2023-09-07T08:40:53;34.10;1.00
4699;DHT22;33708;49.466;11.176;2023-09-07T08:43:19;32.70;1.00
4699;DHT22;33708;49.466;11.176;2023-09-07T08:48:38;33.80;1.00
4699;DHT22;33708;49.466;11.176;2023-09-07T08:51:05;34.00;1.00
4699;DHT22;33708;49.466;11.176;2023-09-07T08:53:32;35.20;1.00
4699;DHT22;33708;49.466;11.176;2023-09-07T08:56:00;34.60;1.00
4699;DHT22;33708;49.466;11.176;2023-09-07T08:58:26;35.80;1.00
4699;DHT22;33708;49.466;11.176;2023-09-07T09:00:52;33.90;1.00
4699;DHT22;33708;49.466;11.176;2023-09-07T09:03:18;32.40;1.00
4699;DHT22;33708;49.466;11.176;2023-09-07T09:05:45;34.40;1.00
4699;DHT22;33708;49.466;11.176;2023-09-07T09:08:12;34.30;1.00
4699;DHT22;33708;49.466;11.176;2023-09-07T09:10:40;34.60;1.00
4699;DHT22;33708;49.466;11.176;2023-09-07T09:13:07;35.30;1.00
4699;DHT22;33708;49.466;11.176;2023-09-07T09:15:32;34.40;1.00
4699;DHT22;33708;49.466;11.176;2023-09-07T09:17:58;34.20;1.00
4699;DHT22;33708;49.466;11.176;2023-09-07T09:20:25;33.70;1.00
4699;DHT22;33708;49.466;11.176;2023-09-07T09:22:53;32.60;1.00
4699;DHT22;33708;49.466;11.176;2023-09-07T09:25:19;34.30;1.00
4699;DHT22;33708;49.466;11.176;2023-09-07T09:27:44;32.30;1.00
4699;DHT22;33708;49.466;11.176;2023-09-07T09:30:10;31.50;1.00
4699;DHT22;33708;49.466;11.176;2023-09-07T09:32:37;31.40;1.00
4699;DHT22;33708;49.466;11.176;2023-09-07T09:35:03;32.20;1.00
4699;DHT22;33708;49.466;11.176;2023-09-07T09:37:31;32.50;1.00
4699;DHT22;33708;49.466;11.176;2023-09-07T09:39:58;30.70;1.00
4699;DHT22;33708;49.466;11.176;2023-09-07T09:42:25;27.90;1.00
4699;DHT22;33708;49.466;11.176;2023-09-07T09:44:52;27.10;1.00
4699;DHT22;33708;49.466;11.176;2023-09-07T09:47:21;26.50;1.00
4699;DHT22;33708;49.466;11.176;2023-09-07T09:49:48;26.20;1.00
4699;DHT22;33708;49.466;11.176;2023-09-07T09:52:15;25.90;1.00
4699;DHT22;33708;49.466;11.176;2023-09-07T09:54:42;25.70;1.00
4699;DHT22;33708;49.466;11.176;2023-09-07T09:57:08;25.70;1.00
4699;DHT22;33708;49.466;11.176;2023-09-07T09:59:34;25.70;1.00
4699;DHT22;33708;49.466;11.176;2023-09-07T10:02:01;25.70;1.00
4699;DHT22;33708;49.466;11.176;2023-09-07T10:04:28;25.50;1.00
4699;DHT22;33708;49.466;11.176;2023-09-07T10:07:01;25.10;1.00
4699;DHT22;33708;49.466;11.176;2023-09-07T10:09:32;25.30;1.00
4699;DHT22;33708;49.466;11.176;2023-09-07T10:11:59;24.90;1.00
4699;DHT22;33708;49.466;11.176;2023-09-07T10:14:25;25.10;1.00
4699;DHT22;33708;49.466;11.176;2023-09-07T10:16:52;25.20;1.00
4699;DHT22;33708;49.466;11.176;2023-09-07T10:19:25;23.50;1.00
4699;DHT22;33708;49.466;11.176;2023-09-07T10:21:55;25.40;1.00
4699;DHT22;33708;49.466;11.176;2023-09-07T10:24:31;25.40;1.00
4699;DHT22;33708;49.466;11.176;2023-09-07T10:27:06;25.50;1.00
4699;DHT22;33708;49.466;11.176;2023-09-07T10:29:52;25.50;1.00
4699;DHT22;33708;49.466;11.176;2023-09-07T10:32:18;25.60;1.00
4699;DHT22;33708;49.466;11.176;2023-09-07T10:34:44;25.50;1.00
4699;DHT22;33708;49.466;11.176;2023-09-07T10:37:13;25.50;1.00
4699;DHT22;33708;49.466;11.176;2023-09-07T10:39:40;25.50;1.00
4699;DHT22;33708;49.466;11.176;2023-09-07T10:42:09;25.60;1.00
4699;DHT22;33708;49.466;11.176;2023-09-07T10:44:45;25.60;1.00
4699;DHT22;33708;49.466;11.176;2023-09-07T10:47:10;25.40;1.00
4699;DHT22;33708;49.466;11.176;2023-09-07T10:49:37;25.60;1.00
4699;DHT22;33708;49.466;11.176;2023-09-07T10:52:03;25.60;1.00
4699;DHT22;33708;49.466;11.176;2023-09-07T10:54:29;25.80;1.00
4699;DHT22;33708;49.466;11.176;2023-09-07T10:56:55;25.60;1.00
4699;DHT22;33708;49.466;11.176;2023-09-07T10:59:23;25.70;1.00
4699;DHT22;33708;49.466;11.176;2023-09-07T11:01:52;25.80;1.00
4699;DHT22;33708;49.466;11.176;2023-09-07T11:04:18;26.00;1.00
4699;DHT22;33708;49.466;11.176;2023-09-07T11:06:45;25.80;1.00
4699;DHT22;33708;49.466;11.176;2023-09-07T11:09:11;25.90;1.00
4699;DHT22;33708;49.466;11.176;2023-09-07T11:11:37;26.20;1.00
4699;DHT22;33708;49.466;11.176;2023-09-07T11:14:04;26.00;1.00
4699;DHT22;33708;49.466;11.176;2023-09-07T11:16:35;26.40;1.00
4699;DHT22;33708;49.466;11.176;2023-09-07T11:19:04;26.30;1.00
4699;DHT22;33708;49.466;11.176;2023-09-07T11:21:30;26.60;1.00
4699;DHT22;33708;49.466;11.176;2023-09-07T11:23:58;26.70;1.00
4699;DHT22;33708;49.466;11.176;2023-09-07T11:26:23;26.80;1.00
4699;DHT22;33708;49.466;11.176;2023-09-07T11:28:49;26.50;1.00
4699;DHT22;33708;49.466;11.176;2023-09-07T11:31:18;25.20;1.00
4699;DHT22;33708;49.466;11.176;2023-09-07T11:33:44;26.70;1.00
4699;DHT22;33708;49.466;11.176;2023-09-07T11:36:09;26.90;1.00
4699;DHT22;33708;49.466;11.176;2023-09-07T11:38:36;27.00;1.00
4699;DHT22;33708;49.466;11.176;2023-09-07T11:41:03;26.90;1.00
4699;DHT22;33708;49.466;11.176;2023-09-07T11:43:29;27.10;1.00
4699;DHT22;33708;49.466;11.176;2023-09-07T11:45:54;27.20;1.00
4699;DHT22;33708;49.466;11.176;2023-09-07T11:48:20;27.20;1.00
4699;DHT22;33708;49.466;11.176;2023-09-07T11:50:46;27.10;1.00
4699;DHT22;33708;49.466;11.176;2023-09-07T11:53:11;27.50;1.00
4699;DHT22;33708;49.466;11.176;2023-09-07T11:55:37;27.50;1.00
4699;DHT22;33708;49.466;11.176;2023-09-07T11:58:04;27.50;1.00
4699;DHT22;33708;49.466;11.176;2023-09-07T12:00:30;27.50;1.00
4699;DHT22;33708;49.466;11.176;2023-09-07T12:02:57;27.30;1.00
4699;DHT22;33708;49.466;11.176;2023-09-07T12:05:23;27.20;1.00
4699;DHT22;33708;49.466;11.176;2023-09-07T12:07:48;27.40;1.00
4699;DHT22;33708;49.466;11.176;2023-09-07T12:10:14;27.80;1.00
4699;DHT22;33708;49.466;11.176;2023-09-07T12:12:40;27.70;1.00
4699;DHT22;33708;49.466;11.176;2023-09-07T12:15:07;27.90;1.00
4699;DHT22;33708;49.466;11.176;2023-09-07T12:17:33;27.80;1.00
4699;DHT22;33708;49.466;11.176;2023-09-07T12:19:59;28.00;1.00
4699;DHT22;33708;49.466;11.176;2023-09-07T12:22:26;27.80;1.00
4699;DHT22;33708;49.466;11.176;2023-09-07T12:24:51;27.90;1.00
4699;DHT22;33708;49.466;11.176;2023-09-07T12:27:17;28.10;1.00
4699;DHT22;33708;49.466;11.176;2023-09-07T12:29:43;28.00;1.00
4699;DHT22;33708;49.466;11.176;2023-09-07T12:32:09;28.50;1.00
4699;DHT22;33708;49.466;11.176;2023-09-07T12:34:35;28.40;1.00
4699;DHT22;33708;49.466;11.176;2023-09-07T12:37:01;28.80;1.00
4699;DHT22;33708;49.466;11.176;2023-09-07T12:39:29;28.90;1.00
4699;DHT22;33708;49.466;11.176;2023-09-07T12:41:54;28.30;1.00
4699;DHT22;33708;49.466;11.176;2023-09-07T12:44:20;28.10;1.00
4699;DHT22;33708;49.466;11.176;2023-09-07T12:46:46;28.50;1.00
4699;DHT22;33708;49.466;11.176;2023-09-07T12:49:12;28.50;1.00
4699;DHT22;33708;49.466;11.176;2023-09-07T12:51:37;28.50;1.00
4699;DHT22;33708;49.466;11.176;2023-09-07T12:54:03;28.70;1.00
4699;DHT22;33708;49.466;11.176;2023-09-07T12:56:28;28.80;1.00
4699;DHT22;33708;49.466;11.176;2023-09-07T12:58:54;28.90;1.00
4699;DHT22;33708;49.466;11.176;2023-09-07T13:01:22;29.00;1.00
4699;DHT22;33708;49.466;11.176;2023-09-07T13:03:48;28.80;1.00
4699;DHT22;33708;49.466;11.176;2023-09-07T13:06:13;28.80;1.00
4699;DHT22;33708;49.466;11.176;2023-09-07T13:08:39;28.40;1.00
4699;DHT22;33708;49.466;11.176;2023-09-07T13:11:05;28.90;1.00
4699;DHT22;33708;49.466;11.176;2023-09-07T13:13:30;29.10;1.00
4699;DHT22;33708;49.466;11.176;2023-09-07T13:15:56;29.40;1.00
4699;DHT22;33708;49.466;11.176;2023-09-07T13:18:22;29.50;1.00
4699;DHT22;33708;49.466;11.176;2023-09-07T13:20:48;29.10;1.00
4699;DHT22;33708;49.466;11.176;2023-09-07T13:23:25;29.00;1.00
4699;DHT22;33708;49.466;11.176;2023-09-07T13:25:51;29.30;1.00
4699;DHT22;33708;49.466;11.176;2023-09-07T13:28:17;29.40;1.00
4699;DHT22;33708;49.466;11.176;2023-09-07T13:30:43;29.60;1.00
4699;DHT22;33708;49.466;11.176;2023-09-07T13:33:08;29.40;1.00
4699;DHT22;33708;49.466;11.176;2023-09-07T13:35:34;29.20;1.00
4699;DHT22;33708;49.466;11.176;2023-09-07T13:38:00;28.70;1.00
4699;DHT22;33708;49.466;11.176;2023-09-07T13:40:25;28.80;1.00
4699;DHT22;33708;49.466;11.176;2023-09-07T13:42:55;29.30;1.00
4699;DHT22;33708;49.466;11.176;2023-09-07T13:45:20;29.40;1.00
4699;DHT22;33708;49.466;11.176;2023-09-07T13:47:46;29.10;1.00
4699;DHT22;33708;49.466;11.176;2023-09-07T13:50:12;29.10;1.00
4699;DHT22;33708;49.466;11.176;2023-09-07T13:52:38;29.40;1.00
4699;DHT22;33708;49.466;11.176;2023-09-07T13:55:04;29.20;1.00
4699;DHT22;33708;49.466;11.176;2023-09-07T13:57:30;29.10;1.00
4699;DHT22;33708;49.466;11.176;2023-09-07T13:59:56;29.10;1.00
4699;DHT22;33708;49.466;11.176;2023-09-07T14:02:21;29.00;1.00
4699;DHT22;33708;49.466;11.176;2023-09-07T14:04:47;29.10;1.00
4699;DHT22;33708;49.466;11.176;2023-09-07T14:07:14;29.30;1.00
4699;DHT22;33708;49.466;11.176;2023-09-07T14:09:40;29.30;1.00
4699;DHT22;33708;49.466;11.176;2023-09-07T14:12:06;29.50;1.00
4699;DHT22;33708;49.466;11.176;2023-09-07T14:14:32;29.40;1.00
4699;DHT22;33708;49.466;11.176;2023-09-07T14:16:57;29.50;1.00
4699;DHT22;33708;49.466;11.176;2023-09-07T14:19:25;29.30;1.00
4699;DHT22;33708;49.466;11.176;2023-09-07T14:21:52;29.20;1.00
4699;DHT22;33708;49.466;11.176;2023-09-07T14:24:18;28.80;1.00
4699;DHT22;33708;49.466;11.176;2023-09-07T14:26:44;29.20;1.00
4699;DHT22;33708;49.466;11.176;2023-09-07T14:29:09;29.00;1.00
4699;DHT22;33708;49.466;11.176;2023-09-07T14:31:38;28.90;1.00
4699;DHT22;33708;49.466;11.176;2023-09-07T14:34:04;29.00;1.00
4699;DHT22;33708;49.466;11.176;2023-09-07T14:36:33;29.20;1.00
4699;DHT22;33708;49.466;11.176;2023-09-07T14:38:58;29.00;1.00
4699;DHT22;33708;49.466;11.176;2023-09-07T14:41:24;29.10;1.00
4699;DHT22;33708;49.466;11.176;2023-09-07T14:43:50;29.10;1.00
4699;DHT22;33708;49.466;11.176;2023-09-07T14:46:16;28.70;1.00
4699;DHT22;33708;49.466;11.176;2023-09-07T14:48:43;28.50;1.00
4699;DHT22;33708;49.466;11.176;2023-09-07T14:51:09;28.90;1.00
4699;DHT22;33708;49.466;11.176;2023-09-07T14:53:35;29.00;1.00
4699;DHT22;33708;49.466;11.176;2023-09-07T14:56:01;28.90;1.00
4699;DHT22;33708;49.466;11.176;2023-09-07T14:58:27;28.90;1.00
4699;DHT22;33708;49.466;11.176;2023-09-07T15:00:52;28.90;1.00
4699;DHT22;33708;49.466;11.176;2023-09-07T15:03:18;28.70;1.00
4699;DHT22;33708;49.466;11.176;2023-09-07T15:05:43;28.70;1.00
4699;DHT22;33708;49.466;11.176;2023-09-07T15:08:09;28.50;1.00
4699;DHT22;33708;49.466;11.176;2023-09-07T15:10:34;28.60;1.00
4699;DHT22;33708;49.466;11.176;2023-09-07T15:13:01;28.60;1.00
4699;DHT22;33708;49.466;11.176;2023-09-07T15:15:28;28.60;1.00
4699;DHT22;33708;49.466;11.176;2023-09-07T15:17:54;28.50;1.00
4699;DHT22;33708;49.466;11.176;2023-09-07T15:20:20;28.40;1.00
4699;DHT22;33708;49.466;11.176;2023-09-07T15:22:46;28.50;1.00
4699;DHT22;33708;49.466;11.176;2023-09-07T15:25:11;28.60;1.00
4699;DHT22;33708;49.466;11.176;2023-09-07T15:27:37;28.60;1.00
4699;DHT22;33708;49.466;11.176;2023-09-07T15:30:03;28.40;1.00
4699;DHT22;33708;49.466;11.176;2023-09-07T15:32:29;28.40;1.00
4699;DHT22;33708;49.466;11.176;2023-09-07T15:34:58;28.30;1.00
4699;DHT22;33708;49.466;11.176;2023-09-07T15:37:23;28.20;1.00
4699;DHT22;33708;49.466;11.176;2023-09-07T15:39:49;28.20;1.00
4699;DHT22;33708;49.466;11.176;2023-09-07T15:42:15;28.20;1.00
4699;DHT22;33708;49.466;11.176;2023-09-07T15:44:41;28.10;1.00
4699;DHT22;33708;49.466;11.176;2023-09-07T15:47:09;28.00;1.00
4699;DHT22;33708;49.466;11.176;2023-09-07T15:49:35;27.90;1.00
4699;DHT22;33708;49.466;11.176;2023-09-07T15:52:01;27.40;1.00
4699;DHT22;33708;49.466;11.176;2023-09-07T15:54:27;27.90;1.00
4699;DHT22;33708;49.466;11.176;2023-09-07T15:56:52;27.90;1.00